createdAt,value
2016-01-20T00:00:01.367Z,709.49
2016-01-20T00:00:23.680Z,709.46
2016-01-20T00:00:55.058Z,709.28
2016-01-20T00:01:28.745Z,709.37
2016-01-20T00:01:57.201Z,709.4
2016-01-20T00:02:45.032Z,709.33
2016-01-20T00:03:18.875Z,709.35
2016-01-20T00:03:46.722Z,709.3
2016-01-20T00:04:23.410Z,709.22
2016-01-20T00:05:42.086Z,708.84
2016-01-20T00:06:16.149Z,709.17
2016-01-20T00:07:46.421Z,709.23
2016-01-20T00:08:04.139Z,709.12
2016-01-20T00:08:23.842Z,709.28
2016-01-20T00:09:06.048Z,709.21
2016-01-20T00:09:31.673Z,709.32
2016-01-20T00:10:05.364Z,709.35
2016-01-20T00:11:33.320Z,708.88
2016-01-20T00:12:10.808Z,709.12
2016-01-20T00:13:15.936Z,709.34
2016-01-20T00:13:36.467Z,709.31
2016-01-20T00:14:21.064Z,709.09
2016-01-20T00:15:06.267Z,709.26
2016-01-20T00:16:28.131Z,709.22
2016-01-20T00:18:20.934Z,709.19
2016-01-20T00:18:40.231Z,709.27
2016-01-20T00:18:57.512Z,709.43
2016-01-20T00:19:45.874Z,709.27
2016-01-20T00:21:04.799Z,709.27
2016-01-20T00:21:41.739Z,709.14
2016-01-20T00:22:19.208Z,709.47
2016-01-20T00:23:07.428Z,709.27
2016-01-20T00:23:31.759Z,709.46
2016-01-20T00:24:06.822Z,709.42
2016-01-20T00:24:37.683Z,709.28
2016-01-20T00:25:11.168Z,709.22
2016-01-20T00:25:44.828Z,709.29
2016-01-20T00:26:36.925Z,709.3
2016-01-20T00:27:07.800Z,709.14
2016-01-20T00:27:33.520Z,709.32
2016-01-20T00:28:07.802Z,709.34
2016-01-20T00:28:28.711Z,709.17
2016-01-20T00:28:48.008Z,709.35
2016-01-20T00:29:22.664Z,709
2016-01-20T00:30:10.683Z,709.13
2016-01-20T00:30:50.592Z,708.96
2016-01-20T00:31:10.092Z,709.03
2016-01-20T00:32:01.313Z,709.16
2016-01-20T00:32:49.158Z,709.02
2016-01-20T00:34:15.880Z,709.16
2016-01-20T00:35:09.743Z,709.02
2016-01-20T00:36:11.917Z,709.32
2016-01-20T00:36:32.029Z,709.24
2016-01-20T00:37:24.794Z,709.36
2016-01-20T00:37:44.516Z,709.29
2016-01-20T00:39:14.816Z,709.36
2016-01-20T00:40:16.959Z,709.31
2016-01-20T00:41:17.477Z,709.36
2016-01-20T00:41:59.808Z,709.35
2016-01-20T00:43:18.920Z,709.25
2016-01-20T00:44:21.313Z,708.98
2016-01-20T00:45:56.741Z,709.36
2016-01-20T00:46:52.446Z,709.34
2016-01-20T00:47:42.699Z,709.24
2016-01-20T00:48:31.340Z,709.42
2016-01-20T00:48:51.545Z,709.24
2016-01-20T00:49:14.498Z,709.39
2016-01-20T00:49:51.408Z,709.27
2016-01-20T00:51:14.129Z,709.38
2016-01-20T00:52:12.897Z,709.38
2016-01-20T00:53:00.728Z,709.19
2016-01-20T00:53:34.294Z,709.3
2016-01-20T00:54:48.265Z,709.2
2016-01-20T00:55:10.781Z,709.4
2016-01-20T00:56:35.473Z,709.22
2016-01-20T00:57:20.098Z,709.47
2016-01-20T00:57:56.773Z,709.23
2016-01-20T00:58:33.667Z,709.55
2016-01-20T00:58:57.589Z,709.26
2016-01-20T00:59:37.889Z,709.35
2016-01-20T01:01:07.156Z,709.02
2016-01-20T01:02:10.894Z,709.49
2016-01-20T01:02:58.960Z,709.53
2016-01-20T01:03:24.257Z,709.48
2016-01-20T01:04:44.118Z,709.26
2016-01-20T01:05:31.964Z,709.45
2016-01-20T01:06:03.123Z,709.31
2016-01-20T01:07:18.189Z,709.44
2016-01-20T01:07:38.001Z,709.23
2016-01-20T01:08:26.426Z,709.33
2016-01-20T01:08:46.129Z,709.25
2016-01-20T01:09:31.164Z,709.39
2016-01-20T01:10:03.072Z,709.37
2016-01-20T01:10:33.759Z,709.23
2016-01-20T01:11:07.622Z,709.43
2016-01-20T01:11:31.544Z,709.38
2016-01-20T01:12:08.828Z,709.42
2016-01-20T01:12:45.734Z,709.47
2016-01-20T01:13:13.378Z,709.4
2016-01-20T01:13:27.081Z,709.37
2016-01-20T01:15:06.539Z,709.41
2016-01-20T01:15:26.461Z,709.54
2016-01-20T01:15:42.961Z,709.21
2016-01-20T01:16:02.477Z,709.46
2016-01-20T01:18:49.016Z,709.5
2016-01-20T01:19:45.066Z,709.35
2016-01-20T01:20:22.194Z,709.46
2016-01-20T01:22:04.822Z,709.33
2016-01-20T01:22:41.480Z,709.48
2016-01-20T01:23:01.980Z,709.59
2016-01-20T01:23:49.608Z,709.5
2016-01-20T01:24:15.752Z,709.38
2016-01-20T01:24:38.892Z,709.59
2016-01-20T01:24:55.986Z,709.34
2016-01-20T01:25:16.286Z,709.4
2016-01-20T01:25:51.989Z,709.5
2016-01-20T01:26:26.897Z,709.52
2016-01-20T01:27:03.944Z,709.64
2016-01-20T01:27:21.869Z,709.48
2016-01-20T01:27:49.572Z,709.34
2016-01-20T01:28:23.856Z,709.42
2016-01-20T01:29:31.969Z,709.37
2016-01-20T01:31:11.815Z,709.52
2016-01-20T01:32:03.051Z,709.39
2016-01-20T01:33:11.554Z,709.55
2016-01-20T01:33:48.854Z,709.41
2016-01-20T01:34:26.138Z,709.46
2016-01-20T01:35:03.200Z,709.44
2016-01-20T01:37:58.630Z,709.5
2016-01-20T01:38:29.898Z,709.07
2016-01-20T01:39:01.976Z,709.39
2016-01-20T01:39:18.742Z,709.58
2016-01-20T01:40:28.154Z,709.29
2016-01-20T01:41:27.313Z,709.52
2016-01-20T01:42:35.503Z,709.42
2016-01-20T01:43:24.115Z,709.4
2016-01-20T01:43:46.646Z,709.45
2016-01-20T01:44:56.977Z,709.46
2016-01-20T01:45:47.995Z,709.44
2016-01-20T01:47:06.748Z,709.62
2016-01-20T01:48:05.517Z,709.4
2016-01-20T01:48:36.379Z,709.52
2016-01-20T01:50:52.087Z,709.4
2016-01-20T01:52:17.200Z,709.58
2016-01-20T01:52:31.092Z,709.64
2016-01-20T01:52:47.842Z,709.5
2016-01-20T01:53:16.373Z,709.57
2016-01-20T01:53:50.283Z,709.38
2016-01-20T01:55:28.038Z,709.37
2016-01-20T01:55:48.569Z,709.19
2016-01-20T01:56:31.056Z,709.43
2016-01-20T01:56:50.963Z,709.33
2016-01-20T01:57:14.103Z,709.36
2016-01-20T01:57:50.981Z,709.38
2016-01-20T01:58:31.844Z,709.49
2016-01-20T01:58:59.890Z,709.44
2016-01-20T01:59:36.986Z,709.43
2016-01-20T02:00:01.314Z,709.44
2016-01-20T02:01:34.726Z,709.37
2016-01-20T02:01:57.647Z,709.42
2016-01-20T02:02:48.479Z,709.24
2016-01-20T02:03:11.838Z,709.14
2016-01-20T02:04:01.325Z,709.22
2016-01-20T02:04:39.625Z,709.16
2016-01-20T02:05:51.502Z,709.44
2016-01-20T02:06:14.221Z,709.28
2016-01-20T02:06:59.052Z,709.43
2016-01-20T02:07:18.755Z,709.36
2016-01-20T02:08:02.071Z,709.39
2016-01-20T02:08:21.399Z,709.31
2016-01-20T02:08:57.854Z,709.1
2016-01-20T02:12:00.191Z,709.24
2016-01-20T02:12:34.866Z,709.32
2016-01-20T02:13:56.946Z,709.32
2016-01-20T02:14:26.293Z,709.41
2016-01-20T02:14:43.652Z,709.36
2016-01-20T02:15:07.371Z,709.35
2016-01-20T02:15:52.389Z,709.42
2016-01-20T02:16:32.470Z,709.42
2016-01-20T02:17:09.204Z,709.34
2016-01-20T02:18:33.897Z,709.39
2016-01-20T02:21:02.715Z,709.37
2016-01-20T02:21:22.731Z,709.35
2016-01-20T02:22:33.564Z,709.38
2016-01-20T02:23:04.189Z,709.24
2016-01-20T02:24:08.988Z,709.36
2016-01-20T02:24:49.491Z,709.49
2016-01-20T02:25:15.413Z,709.41
2016-01-20T02:25:52.681Z,709.42
2016-01-20T02:26:27.965Z,709.41
2016-01-20T02:26:59.606Z,709.49
2016-01-20T02:27:21.934Z,709.36
2016-01-20T02:27:51.312Z,709.45
2016-01-20T02:28:25.175Z,709.33
2016-01-20T02:29:12.706Z,709.3
2016-01-20T02:29:49.802Z,709.38
2016-01-20T02:30:29.461Z,709.38
2016-01-20T02:30:52.008Z,709.24
2016-01-20T02:31:26.478Z,709.35
2016-01-20T02:31:58.978Z,709.41
2016-01-20T02:33:00.763Z,709.35
2016-01-20T02:35:14.300Z,709.4
2016-01-20T02:35:52.365Z,709.32
2016-01-20T02:36:37.367Z,709.48
2016-01-20T02:37:15.289Z,709.45
2016-01-20T02:37:49.635Z,709.31
2016-01-20T02:38:29.576Z,709.36
2016-01-20T02:38:54.466Z,709.23
2016-01-20T02:39:42.906Z,709.24
2016-01-20T02:40:14.156Z,709.33
2016-01-20T02:41:25.960Z,709.38
2016-01-20T02:42:23.491Z,709.5
2016-01-20T02:43:00.383Z,709.32
2016-01-20T02:43:17.305Z,709.44
2016-01-20T02:43:37.011Z,709.36
2016-01-20T02:43:56.933Z,709.44
2016-01-20T02:44:19.621Z,709.45
2016-01-20T02:44:57.529Z,709.4
2016-01-20T02:45:49.188Z,709.21
2016-01-20T02:46:26.079Z,709.22
2016-01-20T02:46:46.457Z,708.98
2016-01-20T02:47:09.098Z,709.29
2016-01-20T02:47:42.538Z,709.18
2016-01-20T02:48:33.446Z,709.42
2016-01-20T02:48:57.415Z,709.17
2016-01-20T02:49:42.214Z,709.32
2016-01-20T02:50:33.873Z,709.17
2016-01-20T02:51:11.358Z,709.37
2016-01-20T02:51:46.220Z,709.24
2016-01-20T02:52:07.111Z,709.37
2016-01-20T02:53:26.097Z,709.36
2016-01-20T02:54:17.725Z,709.32
2016-01-20T02:55:46.059Z,709.31
2016-01-20T02:56:06.372Z,709.42
2016-01-20T02:56:34.625Z,709.17
2016-01-20T02:57:03.062Z,708.99
2016-01-20T02:57:57.268Z,709.37
2016-01-20T02:58:34.942Z,709.18
2016-01-20T02:59:22.567Z,709.39
2016-01-20T03:00:42.666Z,709.41
2016-01-20T03:01:14.713Z,709.39
2016-01-20T03:02:03.356Z,709.39
2016-01-20T03:03:39.362Z,709.44
2016-01-20T03:04:19.440Z,709.16
2016-01-20T03:04:36.146Z,709.46
2016-01-20T03:05:17.661Z,709.43
2016-01-20T03:05:43.586Z,709.4
2016-01-20T03:07:50.279Z,709.45
2016-01-20T03:08:32.344Z,709.35
2016-01-20T03:09:03.797Z,709.44
2016-01-20T03:09:45.081Z,709.3
2016-01-20T03:10:08.003Z,709.35
2016-01-20T03:10:52.819Z,709.37
2016-01-20T03:11:20.256Z,709.33
2016-01-20T03:12:22.227Z,709.55
2016-01-20T03:12:52.933Z,709.37
2016-01-20T03:13:08.371Z,709.34
2016-01-20T03:14:07.561Z,709.34
2016-01-20T03:14:27.561Z,709.45
2016-01-20T03:14:45.157Z,709.28
2016-01-20T03:15:06.641Z,709.4
2016-01-20T03:15:50.863Z,709.31
2016-01-20T03:16:33.051Z,709.24
2016-01-20T03:17:07.850Z,709.24
2016-01-20T03:17:42.431Z,709.38
2016-01-20T03:18:00.399Z,709.51
2016-01-20T03:18:42.918Z,709.34
2016-01-20T03:18:59.309Z,709.26
2016-01-20T03:19:14.824Z,709.34
2016-01-20T03:20:01.093Z,709.45
2016-01-20T03:20:20.608Z,709.39
2016-01-20T03:21:28.064Z,709.27
2016-01-20T03:21:44.208Z,709.33
2016-01-20T03:22:05.239Z,709.13
2016-01-20T03:24:16.213Z,709.42
2016-01-20T03:24:53.512Z,709.27
2016-01-20T03:25:30.371Z,709.25
2016-01-20T03:26:07.078Z,709.18
2016-01-20T03:26:30.890Z,709.16
2016-01-20T03:27:22.345Z,709.28
2016-01-20T03:27:42.505Z,708.9
2016-01-20T03:28:28.880Z,709.34
2016-01-20T03:28:52.414Z,709.19
2016-01-20T03:29:21.164Z,709.44
2016-01-20T03:29:40.651Z,709.25
2016-01-20T03:30:34.901Z,709.33
2016-01-20T03:31:08.356Z,709.4
2016-01-20T03:31:31.278Z,709.41
2016-01-20T03:31:54.031Z,709.1
2016-01-20T03:32:44.252Z,709.39
2016-01-20T03:33:11.002Z,709.34
2016-01-20T03:33:32.486Z,709.55
2016-01-20T03:33:58.411Z,709.37
2016-01-20T03:35:26.243Z,709.52
2016-01-20T03:36:03.401Z,709.22
2016-01-20T03:36:43.264Z,709.01
2016-01-20T03:37:06.811Z,709.01
2016-01-20T03:37:40.486Z,709.34
2016-01-20T03:38:50.597Z,709.26
2016-01-20T03:39:47.366Z,709.39
2016-01-20T03:40:07.397Z,709.43
2016-01-20T03:40:41.743Z,709.36
2016-01-20T03:41:31.024Z,709.17
2016-01-20T03:42:02.074Z,709.46
2016-01-20T03:42:24.777Z,709.43
2016-01-20T03:42:55.623Z,709.13
2016-01-20T03:45:35.082Z,709.58
2016-01-20T03:48:10.903Z,709.56
2016-01-20T03:48:30.997Z,709.52
2016-01-20T03:49:01.858Z,709.43
2016-01-20T03:49:38.358Z,709.43
2016-01-20T03:50:04.658Z,709.55
2016-01-20T03:50:41.564Z,709.52
2016-01-20T03:51:15.677Z,709.57
2016-01-20T03:52:03.320Z,709.33
2016-01-20T03:52:38.836Z,709.59
2016-01-20T03:53:10.105Z,709.53
2016-01-20T03:53:47.636Z,709.6
2016-01-20T03:54:21.920Z,709.57
2016-01-20T03:55:18.079Z,709.51
2016-01-20T03:56:37.301Z,709.57
2016-01-20T03:57:00.442Z,709.58
2016-01-20T03:57:48.460Z,709.44
2016-01-20T03:58:09.976Z,709.27
2016-01-20T03:58:36.182Z,709.53
2016-01-20T03:59:47.669Z,709.52
2016-01-20T04:00:10.965Z,709.53
2016-01-20T04:01:10.375Z,709.51
2016-01-20T04:01:41.455Z,709.64
2016-01-20T04:02:24.205Z,709.43
2016-01-20T04:03:12.645Z,709.5
2016-01-20T04:03:42.367Z,709.49
2016-01-20T04:04:58.948Z,709.51
2016-01-20T04:07:31.533Z,709.47
2016-01-20T04:08:02.986Z,709.45
2016-01-20T04:08:47.583Z,709.35
2016-01-20T04:09:01.661Z,709.26
2016-01-20T04:09:38.258Z,709.44
2016-01-20T04:11:27.620Z,709.55
2016-01-20T04:12:01.482Z,709.53
2016-01-20T04:13:49.066Z,709.52
2016-01-20T04:14:10.003Z,709.58
2016-01-20T04:14:57.599Z,709.64
2016-01-20T04:15:52.212Z,709.43
2016-01-20T04:16:33.089Z,709.38
2016-01-20T04:18:23.795Z,709.64
2016-01-20T04:19:02.079Z,709.55
2016-01-20T04:19:51.129Z,709.47
2016-01-20T04:20:31.866Z,709.49
2016-01-20T04:21:20.694Z,709.52
2016-01-20T04:21:37.384Z,709.48
2016-01-20T04:22:25.806Z,709.37
2016-01-20T04:22:57.731Z,709.56
2016-01-20T04:23:57.722Z,709.55
2016-01-20T04:25:02.615Z,709.42
2016-01-20T04:25:32.634Z,709.52
2016-01-20T04:26:06.290Z,709.41
2016-01-20T04:26:20.181Z,709.21
2016-01-20T04:26:48.059Z,709.46
2016-01-20T04:27:12.450Z,709.49
2016-01-20T04:27:32.374Z,709.46
2016-01-20T04:28:12.249Z,709.39
2016-01-20T04:29:00.470Z,709.56
2016-01-20T04:29:51.878Z,709.41
2016-01-20T04:30:22.738Z,709.56
2016-01-20T04:31:10.835Z,709.4
2016-01-20T04:31:33.666Z,709.57
2016-01-20T04:32:12.400Z,709.47
2016-01-20T04:32:31.511Z,709.42
2016-01-20T04:33:22.340Z,709.48
2016-01-20T04:33:35.624Z,709.39
2016-01-20T04:34:26.499Z,709.37
2016-01-20T04:34:46.939Z,709.33
2016-01-20T04:35:27.049Z,709.49
2016-01-20T04:36:18.083Z,709.47
2016-01-20T04:37:06.492Z,709.33
2016-01-20T04:37:29.180Z,709.48
2016-01-20T04:38:05.885Z,709.41
2016-01-20T04:39:25.372Z,709.28
2016-01-20T04:39:53.203Z,709.32
2016-01-20T04:40:19.516Z,709.4
2016-01-20T04:41:10.330Z,709.39
2016-01-20T04:41:38.005Z,709.5
2016-01-20T04:41:58.490Z,709.32
2016-01-20T04:42:21.208Z,709.47
2016-01-20T04:42:55.038Z,709.33
2016-01-20T04:43:46.463Z,709.54
2016-01-20T04:44:31.888Z,709.35
2016-01-20T04:45:22.716Z,709.46
2016-01-20T04:45:59.797Z,709.51
2016-01-20T04:47:36.068Z,709.55
2016-01-20T04:49:08.946Z,709.33
2016-01-20T04:49:46.449Z,709.39
2016-01-20T04:50:23.715Z,709.49
2016-01-20T04:51:08.310Z,709.38
2016-01-20T04:51:39.234Z,709.28
2016-01-20T04:51:55.797Z,709.49
2016-01-20T04:52:26.672Z,709.54
2016-01-20T04:53:39.818Z,709.52
2016-01-20T04:54:00.131Z,709.43
2016-01-20T04:54:45.556Z,709.41
2016-01-20T04:55:22.025Z,709.51
2016-01-20T04:55:58.527Z,709.43
2016-01-20T04:56:38.451Z,709.53
2016-01-20T04:59:08.160Z,709.38
2016-01-20T04:59:43.632Z,709.37
2016-01-20T05:00:20.085Z,709.47
2016-01-20T05:02:41.624Z,709.67
2016-01-20T05:03:30.861Z,709.7
2016-01-20T05:04:07.314Z,709.62
2016-01-20T05:04:27.236Z,709.6
2016-01-20T05:04:50.755Z,709.58
2016-01-20T05:05:44.586Z,709.5
2016-01-20T05:06:01.695Z,709.6
2016-01-20T05:06:25.023Z,709.22
2016-01-20T05:07:40.528Z,709.53
2016-01-20T05:08:09.903Z,709.52
2016-01-20T05:08:55.108Z,709.53
2016-01-20T05:09:14.874Z,709.5
2016-01-20T05:09:37.674Z,709.57
2016-01-20T05:10:14.315Z,709.45
2016-01-20T05:11:45.899Z,709.49
2016-01-20T05:12:31.308Z,709.63
2016-01-20T05:13:02.152Z,709.49
2016-01-20T05:13:55.857Z,709.51
2016-01-20T05:15:01.438Z,709.55
2016-01-20T05:15:25.375Z,709.62
2016-01-20T05:16:46.099Z,709.61
2016-01-20T05:17:16.959Z,709.54
2016-01-20T05:18:02.837Z,709.53
2016-01-20T05:18:50.495Z,709.27
2016-01-20T05:19:13.214Z,709.54
2016-01-20T05:19:35.763Z,709.57
2016-01-20T05:20:07.420Z,709.56
2016-01-20T05:20:33.345Z,709.54
2016-01-20T05:21:23.626Z,709.58
2016-01-20T05:22:11.348Z,709.5
2016-01-20T05:23:36.103Z,709.56
2016-01-20T05:24:06.946Z,709.42
2016-01-20T05:24:40.386Z,709.64
2016-01-20T05:26:19.248Z,709.53
2016-01-20T05:27:41.739Z,709.61
2016-01-20T05:28:01.285Z,709.6
2016-01-20T05:28:29.051Z,709.65
2016-01-20T05:28:55.382Z,709.6
2016-01-20T05:29:30.038Z,709.49
2016-01-20T05:29:49.790Z,709.48
2016-01-20T05:30:38.028Z,709.63
2016-01-20T05:31:11.965Z,709.58
2016-01-20T05:31:42.608Z,709.56
2016-01-20T05:32:13.452Z,709.56
2016-01-20T05:33:09.611Z,709.32
2016-01-20T05:33:57.239Z,709.48
2016-01-20T05:35:10.992Z,709.58
2016-01-20T05:35:59.010Z,709.61
2016-01-20T05:36:33.934Z,709.58
2016-01-20T05:37:06.684Z,709.49
2016-01-20T05:38:09.109Z,709.62
2016-01-20T05:39:00.143Z,709.59
2016-01-20T05:39:47.771Z,709.68
2016-01-20T05:40:19.021Z,709.78
2016-01-20T05:40:39.335Z,709.76
2016-01-20T05:40:59.257Z,709.75
2016-01-20T05:41:33.322Z,709.74
2016-01-20T05:42:07.776Z,709.55
2016-01-20T05:43:10.841Z,709.67
2016-01-20T05:43:25.122Z,709.6
2016-01-20T05:43:59.797Z,709.7
2016-01-20T05:45:11.316Z,709.64
2016-01-20T05:45:51.646Z,709.71
2016-01-20T05:46:12.505Z,709.7
2016-01-20T05:47:14.273Z,709.61
2016-01-20T05:47:41.901Z,709.71
2016-01-20T05:49:01.373Z,709.66
2016-01-20T05:51:55.335Z,709.61
2016-01-20T05:52:35.321Z,709.62
2016-01-20T05:53:45.839Z,709.68
2016-01-20T05:55:22.827Z,709.52
2016-01-20T05:55:51.126Z,709.76
2016-01-20T05:56:07.689Z,709.6
2016-01-20T05:56:41.129Z,709.69
2016-01-20T05:57:08.473Z,709.61
2016-01-20T05:57:57.695Z,709.55
2016-01-20T05:58:35.384Z,709.61
2016-01-20T05:58:51.868Z,709.57
2016-01-20T05:59:57.996Z,709.37
2016-01-20T06:00:20.512Z,709.42
2016-01-20T06:01:08.795Z,709.65
2016-01-20T06:01:39.267Z,709.62
2016-01-20T06:02:11.330Z,709.73
2016-01-20T06:03:14.723Z,709.62
2016-01-20T06:03:48.225Z,709.51
2016-01-20T06:04:47.400Z,709.6
2016-01-20T06:05:08.338Z,709.66
2016-01-20T06:05:31.338Z,709.58
2016-01-20T06:06:19.356Z,709.67
2016-01-20T06:07:35.486Z,709.51
2016-01-20T06:09:08.130Z,709.42
2016-01-20T06:10:35.447Z,709.42
2016-01-20T06:11:26.275Z,709.62
2016-01-20T06:11:45.794Z,709.72
2016-01-20T06:12:30.388Z,709.59
2016-01-20T06:12:51.281Z,709.81
2016-01-20T06:13:28.344Z,709.62
2016-01-20T06:14:13.751Z,709.64
2016-01-20T06:15:52.409Z,709.73
2016-01-20T06:16:14.925Z,709.52
2016-01-20T06:16:28.643Z,709.48
2016-01-20T06:17:56.754Z,709.78
2016-01-20T06:19:11.795Z,709.64
2016-01-20T06:22:50.542Z,709.77
2016-01-20T06:24:11.089Z,709.69
2016-01-20T06:24:30.589Z,709.76
2016-01-20T06:24:50.497Z,709.79
2016-01-20T06:25:08.404Z,709.56
2016-01-20T06:25:27.904Z,709.68
2016-01-20T06:26:45.171Z,709.45
2016-01-20T06:26:59.062Z,709.55
2016-01-20T06:27:19.703Z,709.73
2016-01-20T06:27:53.564Z,709.81
2016-01-20T06:28:16.673Z,709.9
2016-01-20T06:28:48.331Z,709.71
2016-01-20T06:29:50.521Z,709.74
2016-01-20T06:30:10.849Z,709.83
2016-01-20T06:30:34.086Z,709.86
2016-01-20T06:30:54.039Z,709.75
2016-01-20T06:31:10.726Z,709.83
2016-01-20T06:31:55.948Z,710
2016-01-20T06:33:20.825Z,709.69
2016-01-20T06:33:37.718Z,709.79
2016-01-20T06:34:14.593Z,710
2016-01-20T06:34:34.735Z,709.87
2016-01-20T06:35:48.301Z,709.82
2016-01-20T06:36:36.506Z,709.8
2016-01-20T06:37:04.365Z,709.84
2016-01-20T06:37:20.881Z,709.97
2016-01-20T06:38:20.961Z,709.71
2016-01-20T06:38:43.292Z,709.87
2016-01-20T06:39:28.901Z,709.78
2016-01-20T06:40:51.375Z,709.69
2016-01-20T06:41:45.019Z,709.85
2016-01-20T06:42:12.456Z,709.81
2016-01-20T06:42:39.366Z,709.93
2016-01-20T06:43:41.494Z,709.84
2016-01-20T06:43:58.462Z,709.94
2016-01-20T06:45:34.730Z,709.84
2016-01-20T06:46:29.686Z,709.89
2016-01-20T06:47:06.376Z,709.89
2016-01-20T06:49:44.322Z,709.85
2016-01-20T06:51:14.934Z,710.02
2016-01-20T06:52:16.686Z,709.95
2016-01-20T06:52:48.501Z,709.93
2016-01-20T06:53:09.610Z,709.95
2016-01-20T06:53:29.938Z,710.05
2016-01-20T06:53:50.692Z,709.94
2016-01-20T06:54:20.083Z,710.06
2016-01-20T06:54:51.851Z,710.04
2016-01-20T06:55:13.663Z,710.06
2016-01-20T06:56:05.307Z,710
2016-01-20T06:56:28.010Z,709.91
2016-01-20T06:57:13.309Z,710.03
2016-01-20T06:58:01.327Z,710.1
2016-01-20T06:58:46.549Z,710.07
2016-01-20T06:59:20.252Z,709.96
2016-01-20T06:59:51.115Z,710.07
2016-01-20T07:01:06.898Z,709.91
2016-01-20T07:01:54.853Z,710.06
2016-01-20T07:02:36.900Z,710.06
2016-01-20T07:03:11.123Z,710.19
2016-01-20T07:04:03.328Z,710.1
2016-01-20T07:04:20.625Z,710.2
2016-01-20T07:04:36.484Z,710.08
2016-01-20T07:04:54.268Z,710.04
2016-01-20T07:05:23.284Z,710.09
2016-01-20T07:05:51.020Z,710.04
2016-01-20T07:06:21.770Z,710.1
2016-01-20T07:06:56.648Z,710.19
2016-01-20T07:07:45.542Z,710.05
2016-01-20T07:08:20.354Z,710.07
2016-01-20T07:09:36.091Z,710.23
2016-01-20T07:10:07.813Z,710.28
2016-01-20T07:10:40.191Z,710.4
2016-01-20T07:11:11.941Z,710.37
2016-01-20T07:12:27.037Z,710.37
2016-01-20T07:12:42.274Z,710.28
2016-01-20T07:13:10.664Z,710.34
2016-01-20T07:13:31.071Z,710.28
2016-01-20T07:14:00.386Z,710.24
2016-01-20T07:14:17.480Z,710.23
2016-01-20T07:14:37.167Z,710.28
2016-01-20T07:14:51.232Z,710.07
2016-01-20T07:15:09.357Z,710.52
2016-01-20T07:16:41.222Z,710.32
2016-01-20T07:17:20.457Z,710.34
2016-01-20T07:17:46.366Z,710.21
2016-01-20T07:18:00.006Z,710.22
2016-01-20T07:18:34.288Z,710.4
2016-01-20T07:18:57.024Z,710.34
2016-01-20T07:19:11.040Z,710.25
2016-01-20T07:20:24.480Z,710.35
2016-01-20T07:20:40.202Z,710.39
2016-01-20T07:21:33.468Z,710.41
2016-01-20T07:22:04.204Z,710.37
2016-01-20T07:22:30.313Z,710.35
2016-01-20T07:22:53.363Z,710.35
2016-01-20T07:23:25.129Z,710.4
2016-01-20T07:24:02.210Z,710.3
2016-01-20T07:24:15.804Z,710.51
2016-01-20T07:24:50.525Z,710.26
2016-01-20T07:25:07.494Z,710.33
2016-01-20T07:25:40.137Z,710.42
2016-01-20T07:26:16.668Z,710.42
2016-01-20T07:26:57.218Z,710.4
2016-01-20T07:27:21.062Z,710.21
2016-01-20T07:27:52.112Z,710.26
2016-01-20T07:28:26.221Z,710.39
2016-01-20T07:29:15.864Z,710.28
2016-01-20T07:30:46.916Z,710.49
2016-01-20T07:31:27.713Z,710.32
2016-01-20T07:31:50.263Z,710.35
2016-01-20T07:32:35.435Z,710.55
2016-01-20T07:32:58.140Z,710.55
2016-01-20T07:33:28.703Z,710.4
2016-01-20T07:34:01.862Z,710.27
2016-01-20T07:34:26.018Z,710.47
2016-01-20T07:34:57.083Z,710.31
2016-01-20T07:35:31.755Z,710.36
2016-01-20T07:36:31.195Z,710.39
2016-01-20T07:38:09.935Z,710.3
2016-01-20T07:38:38.123Z,710.45
2016-01-20T07:39:43.722Z,710.54
2016-01-20T07:41:39.868Z,710.44
2016-01-20T07:42:07.993Z,710.46
2016-01-20T07:42:39.040Z,710.47
2016-01-20T07:42:53.886Z,710.36
2016-01-20T07:43:32.323Z,710.53
2016-01-20T07:43:58.045Z,710.25
2016-01-20T07:44:14.936Z,710.35
2016-01-20T07:44:43.422Z,710.4
2016-01-20T07:45:04.828Z,710.42
2016-01-20T07:45:19.016Z,710.55
2016-01-20T07:45:39.750Z,710.64
2016-01-20T07:45:58.378Z,710.59
2016-01-20T07:46:47.100Z,710.46
2016-01-20T07:47:18.147Z,710.57
2016-01-20T07:47:49.119Z,710.52
2016-01-20T07:49:11.605Z,710.51
2016-01-20T07:49:24.886Z,710.5
2016-01-20T07:49:56.248Z,710.46
2016-01-20T07:50:45.080Z,710.59
2016-01-20T07:51:08.220Z,710.5
2016-01-20T07:52:08.644Z,710.43
2016-01-20T07:52:43.725Z,710.51
2016-01-20T07:53:54.102Z,710.63
2016-01-20T07:54:59.121Z,710.66
2016-01-20T07:56:13.671Z,710.38
2016-01-20T07:56:28.562Z,710.56
2016-01-20T07:56:45.268Z,710.36
2016-01-20T07:58:23.708Z,710.59
2016-01-20T07:59:08.929Z,710.59
2016-01-20T07:59:31.445Z,710.68
2016-01-20T08:00:05.901Z,710.58
2016-01-20T08:00:31.541Z,710.6
2016-01-20T08:00:57.263Z,710.54
2016-01-20T08:01:31.154Z,710.44
2016-01-20T08:02:04.109Z,710.49
2016-01-20T08:02:49.706Z,710.59
2016-01-20T08:03:17.565Z,710.5
2016-01-20T08:03:51.426Z,710.5
2016-01-20T08:04:27.911Z,710.51
2016-01-20T08:04:56.429Z,710.54
2016-01-20T08:05:13.601Z,710.63
2016-01-20T08:05:53.104Z,710.62
2016-01-20T08:06:41.385Z,710.68
2016-01-20T08:07:15.263Z,710.65
2016-01-20T08:07:35.357Z,710.6
2016-01-20T08:08:09.016Z,710.75
2016-01-20T08:09:00.050Z,710.73
2016-01-20T08:09:35.237Z,710.69
2016-01-20T08:10:19.912Z,710.59
2016-01-20T08:11:28.665Z,710.66
2016-01-20T08:11:48.399Z,710.72
2016-01-20T08:12:11.714Z,710.45
2016-01-20T08:12:45.386Z,710.47
2016-01-20T08:13:42.670Z,710.61
2016-01-20T08:14:27.876Z,710.48
2016-01-20T08:14:44.486Z,710.64
2016-01-20T08:15:18.145Z,710.3
2016-01-20T08:15:46.192Z,710.65
2016-01-20T08:16:03.554Z,710.65
2016-01-20T08:16:34.007Z,710.63
2016-01-20T08:16:55.134Z,710.58
2016-01-20T08:17:12.150Z,710.65
2016-01-20T08:17:43.650Z,710.75
2016-01-20T08:18:15.122Z,710.62
2016-01-20T08:18:43.184Z,710.6
2016-01-20T08:19:07.170Z,710.75
2016-01-20T08:19:41.702Z,710.66
2016-01-20T08:20:29.940Z,710.55
2016-01-20T08:21:05.020Z,710.63
2016-01-20T08:21:38.661Z,710.66
2016-01-20T08:21:56.005Z,710.59
2016-01-20T08:22:13.726Z,710.69
2016-01-20T08:23:32.401Z,710.44
2016-01-20T08:24:08.854Z,710.82
2016-01-20T08:24:31.420Z,710.48
2016-01-20T08:25:02.685Z,710.57
2016-01-20T08:25:22.578Z,710.56
2016-01-20T08:25:53.453Z,710.52
2016-01-20T08:26:12.769Z,710.59
2016-01-20T08:26:58.206Z,710.54
2016-01-20T08:28:29.525Z,710.77
2016-01-20T08:30:10.918Z,710.65
2016-01-20T08:30:41.998Z,710.6
2016-01-20T08:31:26.623Z,710.58
2016-01-20T08:31:57.705Z,710.82
2016-01-20T08:32:17.612Z,710.56
2016-01-20T08:32:48.864Z,710.78
2016-01-20T08:33:31.085Z,710.74
2016-01-20T08:35:42.466Z,710.67
2016-01-20T08:36:16.748Z,710.62
2016-01-20T08:36:54.235Z,710.64
2016-01-20T08:39:22.083Z,710.75
2016-01-20T08:40:16.556Z,710.83
2016-01-20T08:41:08.417Z,710.74
2016-01-20T08:41:48.311Z,710.94
2016-01-20T08:42:25.201Z,710.76
2016-01-20T08:43:08.297Z,710.83
2016-01-20T08:44:31.222Z,710.77
2016-01-20T08:44:48.553Z,710.76
2016-01-20T08:45:06.772Z,710.71
2016-01-20T08:45:36.022Z,710.69
2016-01-20T08:46:02.665Z,710.73
2016-01-20T08:46:45.277Z,711.03
2016-01-20T08:47:22.964Z,710.74
2016-01-20T08:47:39.888Z,710.71
2016-01-20T08:48:54.125Z,710.71
2016-01-20T08:49:25.657Z,710.81
2016-01-20T08:49:59.722Z,710.75
2016-01-20T08:50:40.240Z,710.12
2016-01-20T08:51:14.099Z,710.73
2016-01-20T08:54:35.218Z,710.75
2016-01-20T08:54:54.830Z,710.7
2016-01-20T08:55:15.361Z,710.63
2016-01-20T08:56:20.426Z,710.79
2016-01-20T08:57:12.054Z,710.76
2016-01-20T08:57:57.791Z,710.83
2016-01-20T08:58:14.729Z,710.83
2016-01-20T08:58:51.684Z,710.72
2016-01-20T08:59:34.184Z,710.86
2016-01-20T09:00:08.921Z,710.7
2016-01-20T09:00:32.062Z,710.45